createdAt,value
2022-08-11T00:00:34.871Z,2.20
2022-08-11T00:01:01.638Z,1.90
2022-08-11T00:02:01.615Z,1.90
2022-08-11T00:03:01.640Z,2.10
2022-08-11T00:04:01.572Z,2.20
2022-08-11T00:05:01.564Z,2.00
2022-08-11T00:06:01.530Z,2.00
2022-08-11T00:07:01.507Z,1.90
2022-08-11T00:08:01.487Z,2.00
2022-08-11T00:09:01.461Z,2.00
2022-08-11T00:10:01.440Z,1.90
2022-08-11T00:11:01.417Z,2.20
2022-08-11T00:12:01.397Z,2.20
2022-08-11T00:15:10.748Z,1.70
2022-08-11T00:15:45.053Z,1.90
2022-08-11T00:16:45.029Z,2.40
2022-08-11T00:17:45.009Z,1.90
2022-08-11T00:18:44.984Z,2.00
2022-08-11T00:20:11.857Z,2.00
2022-08-11T00:20:44.940Z,2.30
2022-08-11T00:22:04.230Z,2.00
2022-08-11T00:22:44.897Z,2.20
2022-08-11T00:23:44.876Z,2.10
2022-08-11T00:24:54.739Z,2.20
2022-08-11T00:25:44.832Z,2.20
2022-08-11T00:26:44.808Z,2.20
2022-08-11T00:27:44.787Z,2.40
2022-08-11T00:28:44.764Z,2.10
2022-08-11T00:29:51.719Z,2.30
2022-08-11T00:30:44.728Z,2.40
2022-08-11T00:31:44.706Z,2.20
2022-08-11T00:32:44.685Z,2.00
2022-08-11T00:33:45.433Z,2.20
2022-08-11T00:34:44.639Z,2.00
2022-08-11T00:35:54.344Z,2.30
2022-08-11T00:36:44.593Z,2.30
2022-08-11T00:37:44.572Z,2.10
2022-08-11T00:38:44.551Z,1.90
2022-08-11T00:39:44.627Z,2.00
2022-08-11T00:40:44.509Z,2.10
2022-08-11T00:41:44.484Z,2.00
2022-08-11T00:42:46.614Z,2.10
2022-08-11T00:43:44.443Z,2.00
2022-08-11T00:44:44.417Z,2.20
2022-08-11T00:45:44.399Z,2.20
2022-08-11T00:46:44.373Z,1.80
2022-08-11T00:47:44.352Z,2.10
2022-08-11T00:48:44.328Z,2.20
2022-08-11T00:49:44.309Z,2.00
2022-08-11T00:50:44.283Z,2.30
2022-08-11T00:51:59.689Z,2.00
2022-08-11T00:52:44.239Z,2.20
2022-08-11T00:53:44.245Z,2.10
2022-08-11T00:54:44.199Z,2.00
2022-08-11T00:55:47.231Z,2.10
2022-08-11T00:56:44.156Z,2.00
2022-08-11T00:57:44.131Z,2.00
2022-08-11T00:58:44.108Z,2.00
2022-08-11T00:59:44.084Z,2.10
2022-08-11T01:00:44.107Z,2.00
2022-08-11T01:01:44.040Z,2.10
2022-08-11T01:02:44.014Z,2.20
2022-08-11T01:03:43.995Z,2.20
2022-08-11T01:04:43.976Z,2.40
2022-08-11T01:05:43.949Z,2.10
2022-08-11T01:06:43.925Z,2.10
2022-08-11T01:08:02.448Z,2.20
2022-08-11T01:08:43.880Z,2.50
2022-08-11T01:09:43.858Z,1.90
2022-08-11T01:10:43.835Z,2.20
2022-08-11T01:11:55.243Z,2.10
2022-08-11T01:12:43.789Z,2.00
2022-08-11T01:13:43.780Z,2.30
2022-08-11T01:14:43.747Z,2.40
2022-08-11T01:15:43.723Z,2.30
2022-08-11T01:16:43.701Z,2.00
2022-08-11T01:17:43.678Z,2.30
2022-08-11T01:18:43.657Z,2.10
2022-08-11T01:20:16.248Z,2.00
2022-08-11T01:20:48.661Z,2.30
2022-08-11T01:21:43.588Z,2.20
2022-08-11T01:22:43.564Z,2.30
2022-08-11T01:23:43.543Z,2.20
2022-08-11T01:24:43.519Z,2.20
2022-08-11T01:25:56.839Z,2.00
2022-08-11T01:26:43.473Z,2.20
2022-08-11T01:27:43.453Z,2.40
2022-08-11T01:28:43.429Z,2.30
2022-08-11T01:29:49.488Z,2.20
2022-08-11T01:30:43.384Z,2.20
2022-08-11T01:31:43.363Z,2.00
2022-08-11T01:32:43.337Z,2.20
2022-08-11T01:33:43.315Z,2.20
2022-08-11T01:34:43.295Z,2.10
2022-08-11T01:35:43.273Z,2.40
2022-08-11T01:36:43.247Z,2.10
2022-08-11T01:37:43.228Z,2.30
2022-08-11T01:38:43.202Z,2.00
2022-08-11T01:39:43.242Z,2.30
2022-08-11T01:40:43.154Z,2.40
2022-08-11T01:41:43.134Z,2.20
2022-08-11T01:42:43.109Z,2.20
2022-08-11T01:43:43.090Z,2.10
2022-08-11T01:44:43.068Z,2.00
2022-08-11T01:45:43.051Z,2.10
2022-08-11T01:46:43.019Z,2.10
2022-08-11T01:47:52.511Z,2.30
2022-08-11T01:48:42.974Z,2.20
2022-08-11T01:50:07.683Z,2.30
2022-08-11T01:50:42.931Z,2.10
2022-08-11T01:51:45.272Z,2.30
2022-08-11T01:52:43.046Z,2.10
2022-08-11T01:53:42.863Z,2.20
2022-08-11T01:54:42.840Z,2.10
2022-08-11T01:55:42.815Z,2.10
2022-08-11T01:56:42.790Z,2.30
2022-08-11T01:57:42.769Z,2.10
2022-08-11T01:58:44.063Z,2.30
2022-08-11T01:59:42.722Z,2.10
2022-08-11T02:00:42.726Z,2.40
2022-08-11T02:01:42.677Z,2.20
2022-08-11T02:02:42.654Z,2.10
2022-08-11T02:03:42.633Z,2.20
2022-08-11T02:04:42.607Z,2.60
2022-08-11T02:05:42.586Z,2.30
2022-08-11T02:06:42.561Z,2.40
2022-08-11T02:07:42.541Z,2.30
2022-08-11T02:08:44.790Z,2.40
2022-08-11T02:09:49.907Z,2.20
2022-08-11T02:10:42.472Z,2.00
2022-08-11T02:11:42.451Z,2.30
2022-08-11T02:12:42.431Z,2.20
2022-08-11T02:13:42.404Z,2.20
2022-08-11T02:14:42.387Z,2.40
2022-08-11T02:15:42.361Z,2.20
2022-08-11T02:16:42.333Z,2.30
2022-08-11T02:17:42.313Z,2.30
2022-08-11T02:18:42.288Z,2.30
2022-08-11T02:19:42.268Z,2.20
2022-08-11T02:20:42.241Z,2.10
2022-08-11T02:21:42.219Z,2.30
2022-08-11T02:22:42.196Z,2.20
2022-08-11T02:24:04.988Z,2.10
2022-08-11T02:24:42.149Z,2.20
2022-08-11T02:25:42.127Z,2.40
2022-08-11T02:26:42.117Z,2.30
2022-08-11T02:27:42.083Z,2.30
2022-08-11T02:28:46.608Z,2.90
2022-08-11T02:29:42.036Z,2.50
2022-08-11T02:30:42.010Z,2.10
2022-08-11T02:32:23.922Z,2.30
2022-08-11T02:32:42.087Z,2.20
2022-08-11T02:33:41.944Z,2.00
2022-08-11T02:34:41.920Z,2.20
2022-08-11T02:35:41.898Z,2.30
2022-08-11T02:36:41.872Z,2.40
2022-08-11T02:37:41.850Z,2.30
2022-08-11T02:38:41.829Z,2.60
2022-08-11T02:39:41.880Z,2.30
2022-08-11T02:40:41.783Z,2.50
2022-08-11T02:41:41.761Z,2.50
2022-08-11T02:42:41.736Z,2.60
2022-08-11T02:43:41.715Z,2.60
2022-08-11T02:44:41.690Z,2.40
2022-08-11T02:45:41.668Z,2.50
2022-08-11T02:46:41.644Z,2.40
2022-08-11T02:47:41.622Z,2.40
2022-08-11T02:48:41.599Z,2.20
2022-08-11T02:49:41.575Z,2.50
2022-08-11T02:50:41.552Z,2.20
2022-08-11T02:51:41.530Z,2.20
2022-08-11T02:52:41.505Z,2.30
2022-08-11T02:53:41.483Z,2.40
2022-08-11T02:54:41.459Z,2.40
2022-08-11T02:55:56.485Z,2.20
2022-08-11T02:56:41.413Z,2.30
2022-08-11T02:57:41.390Z,2.30
2022-08-11T02:58:41.367Z,2.30
2022-08-11T02:59:41.358Z,2.30
2022-08-11T03:00:41.334Z,2.30
2022-08-11T03:01:41.449Z,2.40
2022-08-11T03:02:41.303Z,2.30
2022-08-11T03:03:41.265Z,2.70
2022-08-11T03:04:41.240Z,2.60
2022-08-11T03:05:41.220Z,2.20
2022-08-11T03:06:41.194Z,2.50
2022-08-11T03:07:41.173Z,2.40
2022-08-11T03:08:41.149Z,2.50
2022-08-11T03:09:41.127Z,2.50
2022-08-11T03:10:41.103Z,2.40
2022-08-11T03:11:41.081Z,2.60
2022-08-11T03:12:41.056Z,2.30
2022-08-11T03:13:41.034Z,2.60
2022-08-11T03:14:41.013Z,2.30
2022-08-11T03:15:40.988Z,2.60
2022-08-11T03:16:40.963Z,2.40
2022-08-11T03:17:40.942Z,2.60
2022-08-11T03:18:40.917Z,2.50
2022-08-11T03:19:40.896Z,2.20
2022-08-11T03:20:40.870Z,2.40
2022-08-11T03:22:03.254Z,2.40
2022-08-11T03:22:40.825Z,2.50
2022-08-11T03:23:40.803Z,2.40
2022-08-11T03:24:40.778Z,2.50
2022-08-11T03:25:40.761Z,2.80
2022-08-11T03:26:40.732Z,2.60
2022-08-11T03:27:40.710Z,2.50
2022-08-11T03:28:40.686Z,2.50
2022-08-11T03:29:40.663Z,2.60
2022-08-11T03:30:40.640Z,2.40
2022-08-11T03:31:40.617Z,2.30
2022-08-11T03:32:40.593Z,2.30
2022-08-11T03:33:40.574Z,2.40
2022-08-11T03:34:40.546Z,2.40
2022-08-11T03:35:40.524Z,2.40
2022-08-11T03:37:17.347Z,2.50
2022-08-11T03:37:40.477Z,2.50
2022-08-11T03:38:40.454Z,2.80
2022-08-11T03:39:40.495Z,2.50
2022-08-11T03:40:40.407Z,2.60
2022-08-11T03:42:04.028Z,2.60
2022-08-11T03:42:40.361Z,2.80
2022-08-11T03:43:50.081Z,2.80
2022-08-11T03:44:40.313Z,2.60
2022-08-11T03:45:41.245Z,2.70
2022-08-11T03:46:40.267Z,2.60
2022-08-11T03:47:40.244Z,2.50
2022-08-11T03:48:40.220Z,2.60
2022-08-11T03:49:40.198Z,2.50
2022-08-11T03:50:40.174Z,2.50
2022-08-11T03:51:44.808Z,2.80
2022-08-11T03:52:40.131Z,2.90
2022-08-11T03:53:40.105Z,2.50
2022-08-11T03:54:40.081Z,2.60
2022-08-11T03:55:40.059Z,2.40
2022-08-11T03:56:40.033Z,2.60
2022-08-11T03:57:40.013Z,2.80
2022-08-11T03:58:42.067Z,2.50
2022-08-11T03:59:39.967Z,2.70
2022-08-11T04:00:39.943Z,2.60
2022-08-11T04:01:39.975Z,2.70
2022-08-11T04:02:39.894Z,2.80
2022-08-11T04:03:39.872Z,2.60
2022-08-11T04:04:39.869Z,2.60
2022-08-11T04:05:39.824Z,2.40
2022-08-11T04:06:39.803Z,2.70
2022-08-11T04:07:39.780Z,2.60
2022-08-11T04:08:39.754Z,2.50
2022-08-11T04:09:39.734Z,2.60
2022-08-11T04:10:39.709Z,2.80
2022-08-11T04:11:39.685Z,3.00
2022-08-11T04:12:42.124Z,3.00
2022-08-11T04:13:39.638Z,2.80
2022-08-11T04:14:39.614Z,3.00
2022-08-11T04:15:39.591Z,2.60
2022-08-11T04:16:39.567Z,2.60
2022-08-11T04:17:39.545Z,2.60
2022-08-11T04:18:39.519Z,3.00
2022-08-11T04:19:39.498Z,2.80
2022-08-11T04:20:39.475Z,2.70
2022-08-11T04:21:39.450Z,2.50
2022-08-11T04:22:39.739Z,2.50
2022-08-11T04:24:34.972Z,2.60
2022-08-11T04:24:39.873Z,2.80
2022-08-11T04:25:55.894Z,2.90
2022-08-11T04:26:39.333Z,2.80
2022-08-11T04:27:39.448Z,2.70
2022-08-11T04:28:49.956Z,2.60
2022-08-11T04:30:03.824Z,2.60
2022-08-11T04:30:40.669Z,2.60
2022-08-11T04:31:51.076Z,2.50
2022-08-11T04:32:39.384Z,2.70
2022-08-11T04:33:39.169Z,2.70
2022-08-11T04:34:39.148Z,2.80
2022-08-11T04:35:39.122Z,2.80
2022-08-11T04:36:39.099Z,2.40
2022-08-11T04:37:39.075Z,2.90
2022-08-11T04:38:39.053Z,2.90
2022-08-11T04:39:39.111Z,3.00
2022-08-11T04:40:39.006Z,2.60
2022-08-11T04:41:38.981Z,2.60
2022-08-11T04:42:39.181Z,2.80
2022-08-11T04:44:05.289Z,2.70
2022-08-11T04:44:38.912Z,3.10
2022-08-11T04:45:38.888Z,2.70
2022-08-11T04:46:38.866Z,2.80
2022-08-11T04:48:03.759Z,2.80
2022-08-11T04:48:38.818Z,2.90
2022-08-11T04:49:38.795Z,2.80
2022-08-11T04:50:38.772Z,2.80
2022-08-11T04:51:38.749Z,2.80
2022-08-11T04:52:38.810Z,2.40
2022-08-11T04:53:38.701Z,2.80
2022-08-11T04:54:38.679Z,2.60
2022-08-11T04:55:38.655Z,2.90
2022-08-11T04:56:38.631Z,3.00
2022-08-11T04:57:38.607Z,2.60
2022-08-11T04:58:38.585Z,2.70
2022-08-11T04:59:38.563Z,2.80
2022-08-11T05:00:38.539Z,3.00
2022-08-11T05:01:38.546Z,3.10
2022-08-11T05:02:38.686Z,3.00
2022-08-11T05:03:38.467Z,2.80
2022-08-11T05:04:38.445Z,2.70
2022-08-11T05:05:38.425Z,3.10
2022-08-11T05:06:38.398Z,2.90
2022-08-11T05:07:38.374Z,3.10
2022-08-11T05:08:38.351Z,3.20
2022-08-11T05:09:38.328Z,2.80
2022-08-11T05:10:40.015Z,2.80
2022-08-11T05:11:38.280Z,2.90
2022-08-11T05:12:38.416Z,2.80
2022-08-11T05:13:38.233Z,2.70
2022-08-11T05:14:38.211Z,2.80
2022-08-11T05:15:43.226Z,2.70
2022-08-11T05:16:38.163Z,2.80
2022-08-11T05:17:38.142Z,2.90
2022-08-11T05:18:38.118Z,2.50
2022-08-11T05:19:38.094Z,3.10
2022-08-11T05:20:38.070Z,2.70
2022-08-11T05:21:45.519Z,2.70
2022-08-11T05:22:38.194Z,2.80
2022-08-11T05:23:38.000Z,2.70
2022-08-11T05:24:37.977Z,3.00
2022-08-11T05:26:46.523Z,2.80
2022-08-11T05:26:47.685Z,2.90
2022-08-11T05:27:37.907Z,3.00
2022-08-11T05:28:37.884Z,2.80
2022-08-11T05:29:37.859Z,2.70
2022-08-11T05:30:37.838Z,2.90
2022-08-11T05:31:37.814Z,2.80
2022-08-11T05:32:37.978Z,3.00
2022-08-11T05:33:37.766Z,2.80
2022-08-11T05:34:37.745Z,2.80
2022-08-11T05:36:01.896Z,2.70
2022-08-11T05:36:37.697Z,3.10
2022-08-11T05:37:37.675Z,2.60
2022-08-11T05:38:37.651Z,2.80
2022-08-11T05:39:37.690Z,3.10
2022-08-11T05:40:37.604Z,2.80
2022-08-11T05:41:37.581Z,2.90
2022-08-11T05:42:37.558Z,2.60
2022-08-11T05:43:37.536Z,2.90
2022-08-11T05:44:37.545Z,2.70
2022-08-11T05:45:50.722Z,2.90
2022-08-11T05:46:37.467Z,2.90
2022-08-11T05:47:37.442Z,2.70
2022-08-11T05:48:37.422Z,2.90
2022-08-11T05:49:37.397Z,2.70
2022-08-11T05:50:37.373Z,2.90
2022-08-11T05:51:37.354Z,2.80
2022-08-11T05:52:41.597Z,3.20
2022-08-11T05:53:46.317Z,3.10
2022-08-11T05:54:37.283Z,2.80
2022-08-11T05:55:52.569Z,3.00
2022-08-11T05:56:37.234Z,2.80
2022-08-11T05:57:50.670Z,3.00
2022-08-11T05:58:41.968Z,2.90
2022-08-11T05:59:37.173Z,2.80
2022-08-11T06:00:37.142Z,2.90
2022-08-11T06:01:37.169Z,3.00
2022-08-11T06:02:37.301Z,3.00
2022-08-11T06:03:37.072Z,2.90
2022-08-11T06:04:37.049Z,3.00
2022-08-11T06:05:43.214Z,2.80
2022-08-11T06:06:39.207Z,2.90
2022-08-11T06:07:49.495Z,3.00
2022-08-11T06:08:36.957Z,2.80
2022-08-11T06:09:36.933Z,3.30
2022-08-11T06:10:36.912Z,2.90
2022-08-11T06:11:44.265Z,2.80
2022-08-11T06:12:36.991Z,3.00
2022-08-11T06:13:36.842Z,3.10
2022-08-11T06:14:36.820Z,3.20
2022-08-11T06:15:36.796Z,3.10
2022-08-11T06:16:36.773Z,2.70
2022-08-11T06:17:38.579Z,2.90
2022-08-11T06:18:36.729Z,2.90
2022-08-11T06:19:36.704Z,3.10
2022-08-11T06:20:36.682Z,3.00
2022-08-11T06:21:36.679Z,2.80
2022-08-11T06:22:36.827Z,2.70
2022-08-11T06:23:36.613Z,2.90
2022-08-11T06:24:36.591Z,2.90
2022-08-11T06:25:36.568Z,3.10
2022-08-11T06:26:49.573Z,3.20
2022-08-11T06:27:36.521Z,2.90
2022-08-11T06:28:36.499Z,3.00
2022-08-11T06:29:36.888Z,3.00
2022-08-11T06:30:36.454Z,2.80
2022-08-11T06:31:36.429Z,2.80
2022-08-11T06:32:36.430Z,3.10
2022-08-11T06:33:36.388Z,2.90
2022-08-11T06:34:36.371Z,3.20
2022-08-11T06:35:37.974Z,3.10
2022-08-11T06:36:36.317Z,2.80
2022-08-11T06:37:36.811Z,3.00
2022-08-11T06:38:36.272Z,2.90
2022-08-11T06:39:36.294Z,3.30
2022-08-11T06:40:36.227Z,2.90
2022-08-11T06:41:36.204Z,2.70
2022-08-11T06:42:36.423Z,3.00
2022-08-11T06:43:36.158Z,3.20
2022-08-11T06:44:36.135Z,3.40
2022-08-11T06:45:36.112Z,3.40
2022-08-11T06:46:36.091Z,3.20
2022-08-11T06:47:36.066Z,3.00
2022-08-11T06:48:36.044Z,3.00
2022-08-11T06:49:36.022Z,3.20
2022-08-11T06:50:35.999Z,3.40
2022-08-11T06:51:35.976Z,2.90
2022-08-11T06:52:36.455Z,3.10
2022-08-11T06:53:35.931Z,3.10
2022-08-11T06:54:35.912Z,3.10
2022-08-11T06:55:56.175Z,3.00
2022-08-11T06:56:35.863Z,3.00
2022-08-11T06:57:35.843Z,3.00
2022-08-11T06:58:35.819Z,3.10
2022-08-11T06:59:35.797Z,3.10
2022-08-11T07:00:35.774Z,3.20
2022-08-11T07:01:35.803Z,3.20
2022-08-11T07:02:35.731Z,3.10
2022-08-11T07:03:35.706Z,3.10
2022-08-11T07:04:35.683Z,2.80
2022-08-11T07:05:35.665Z,3.20
2022-08-11T07:06:50.485Z,3.00
2022-08-11T07:07:35.616Z,2.80
2022-08-11T07:08:36.121Z,3.00
2022-08-11T07:09:35.570Z,3.30
2022-08-11T07:10:35.550Z,3.00
2022-08-11T07:11:35.527Z,3.10
2022-08-11T07:12:35.505Z,3.40
2022-08-11T07:13:44.586Z,3.00
2022-08-11T07:14:38.491Z,3.00
2022-08-11T07:16:13.229Z,3.20
2022-08-11T07:16:35.417Z,2.90
2022-08-11T07:17:35.391Z,3.00
2022-08-11T07:18:35.374Z,3.50
2022-08-11T07:19:35.348Z,3.20
2022-08-11T07:20:35.327Z,3.40
2022-08-11T07:21:43.076Z,3.10
2022-08-11T07:22:35.282Z,3.20
2022-08-11T07:23:35.259Z,3.40
2022-08-11T07:25:01.649Z,3.20
2022-08-11T07:25:35.214Z,2.80
2022-08-11T07:26:35.198Z,3.10
2022-08-11T07:27:37.375Z,2.70
2022-08-11T07:28:35.148Z,3.00
2022-08-11T07:29:35.125Z,2.80
2022-08-11T07:30:35.108Z,3.00
2022-08-11T07:31:35.082Z,3.10
2022-08-11T07:32:35.059Z,3.00
2022-08-11T07:34:08.167Z,3.20
2022-08-11T07:34:35.016Z,3.20
2022-08-11T07:35:34.994Z,2.90
2022-08-11T07:36:34.972Z,3.30
2022-08-11T07:37:34.948Z,2.90
2022-08-11T07:38:34.927Z,3.10
2022-08-11T07:39:34.965Z,3.10
2022-08-11T07:40:34.882Z,3.10
2022-08-11T07:41:34.860Z,3.10
2022-08-11T07:42:34.839Z,3.00
2022-08-11T07:43:34.816Z,3.20
2022-08-11T07:44:35.527Z,3.00
2022-08-11T07:45:34.772Z,3.00
2022-08-11T07:46:34.751Z,3.10
2022-08-11T07:47:34.732Z,3.10
2022-08-11T07:48:34.706Z,3.40
2022-08-11T07:49:34.688Z,3.20
2022-08-11T07:50:34.681Z,3.30
2022-08-11T07:51:34.643Z,3.20
2022-08-11T07:52:34.717Z,3.20
2022-08-11T07:53:34.595Z,3.10
2022-08-11T07:54:34.575Z,3.00
2022-08-11T07:55:49.107Z,3.10
2022-08-11T07:56:45.588Z,3.20
2022-08-11T07:58:04.455Z,3.10
2022-08-11T07:58:41.416Z,3.00
2022-08-11T08:00:03.893Z,3.30
2022-08-11T08:00:34.443Z,3.10
2022-08-11T08:01:34.493Z,3.40
2022-08-11T08:02:34.400Z,2.90
2022-08-11T08:03:34.391Z,3.20
2022-08-11T08:04:34.356Z,3.50
2022-08-11T08:05:34.333Z,3.20
2022-08-11T08:06:35.916Z,2.90
2022-08-11T08:07:34.300Z,2.90
2022-08-11T08:08:34.268Z,3.00
2022-08-11T08:09:34.247Z,3.00
2022-08-11T08:10:34.226Z,3.40
2022-08-11T08:11:34.207Z,3.20
2022-08-11T08:12:34.182Z,3.10
2022-08-11T08:13:34.159Z,3.00
2022-08-11T08:14:34.138Z,3.20
2022-08-11T08:15:34.116Z,3.10
2022-08-11T08:16:34.095Z,3.40
2022-08-11T08:17:34.072Z,3.40
2022-08-11T08:18:34.052Z,3.10
2022-08-11T08:19:34.030Z,2.90
2022-08-11T08:20:34.008Z,3.10
2022-08-11T08:21:33.986Z,3.00
2022-08-11T08:22:38.717Z,3.10
2022-08-11T08:23:34.383Z,3.70
2022-08-11T08:24:33.922Z,3.60
2022-08-11T08:25:33.899Z,3.60
2022-08-11T08:26:33.880Z,3.10
2022-08-11T08:27:33.863Z,3.40
2022-08-11T08:28:33.838Z,3.20
2022-08-11T08:29:33.813Z,3.10
2022-08-11T08:30:33.794Z,3.20
2022-08-11T08:31:33.771Z,3.40
2022-08-11T08:32:33.859Z,2.80
2022-08-11T08:33:33.727Z,3.60
2022-08-11T08:34:33.725Z,3.10
2022-08-11T08:35:33.685Z,3.00
2022-08-11T08:36:33.664Z,3.40
2022-08-11T08:37:45.614Z,3.00
2022-08-11T08:38:33.622Z,3.30
2022-08-11T08:39:33.748Z,3.30
2022-08-11T08:40:33.578Z,3.30
2022-08-11T08:41:33.556Z,3.50
2022-08-11T08:42:33.632Z,3.10
2022-08-11T08:43:48.721Z,3.00
2022-08-11T08:44:41.688Z,3.50
2022-08-11T08:45:33.472Z,3.40
2022-08-11T08:46:33.449Z,3.10
2022-08-11T08:47:41.664Z,2.90
2022-08-11T08:48:33.407Z,3.20
2022-08-11T08:49:33.387Z,3.10
2022-08-11T08:50:33.364Z,3.00
2022-08-11T08:52:01.624Z,3.10
2022-08-11T08:52:35.945Z,2.90
2022-08-11T08:53:33.304Z,2.70
2022-08-11T08:54:33.280Z,3.30
2022-08-11T08:55:33.259Z,3.10
2022-08-11T08:56:33.237Z,3.20
2022-08-11T08:57:39.253Z,3.10
2022-08-11T08:58:33.195Z,3.40
2022-08-11T08:59:47.495Z,3.20
2022-08-11T09:00:33.152Z,3.90
2022-08-11T09:01:33.191Z,3.20
2022-08-11T09:02:34.639Z,3.30
2022-08-11T09:04:07.233Z,3.50
2022-08-11T09:04:33.069Z,3.10
2022-08-11T09:05:33.051Z,3.10
2022-08-11T09:06:33.030Z,3.20
2022-08-11T09:07:39.400Z,3.30
2022-08-11T09:08:32.989Z,3.10
2022-08-11T09:09:32.968Z,3.30
2022-08-11T09:10:32.946Z,3.30
2022-08-11T09:11:32.926Z,3.30
2022-08-11T09:12:38.439Z,3.30
2022-08-11T09:13:32.883Z,3.40
2022-08-11T09:14:32.868Z,3.10
2022-08-11T09:15:32.841Z,3.60
2022-08-11T09:16:32.820Z,3.10
2022-08-11T09:17:32.818Z,3.30
2022-08-11T09:18:33.865Z,3.30
2022-08-11T09:19:32.758Z,3.40
2022-08-11T09:20:32.736Z,3.00
2022-08-11T09:21:44.451Z,3.20
2022-08-11T09:22:32.778Z,2.90
2022-08-11T09:24:32.653Z,3.20
2022-08-11T09:25:32.633Z,3.50
2022-08-11T09:26:32.611Z,3.00
2022-08-11T09:27:32.592Z,3.20
2022-08-11T09:28:32.569Z,3.30
2022-08-11T09:29:32.554Z,3.20
2022-08-11T09:30:32.529Z,2.90
2022-08-11T09:31:35.803Z,3.40
2022-08-11T09:32:32.487Z,3.30
2022-08-11T09:33:32.469Z,3.40
2022-08-11T09:34:32.445Z,3.10
2022-08-11T09:35:32.427Z,3.10
2022-08-11T09:36:32.404Z,3.10
2022-08-11T09:37:54.172Z,3.40
2022-08-11T09:38:32.364Z,3.40
2022-08-11T09:39:32.403Z,3.30
2022-08-11T09:40:32.656Z,3.40
2022-08-11T09:42:23.617Z,3.30
2022-08-11T09:42:32.282Z,3.60
2022-08-11T09:43:32.262Z,3.40
2022-08-11T09:44:32.240Z,3.20
2022-08-11T09:45:40.008Z,3.30
2022-08-11T09:46:32.203Z,3.40
2022-08-11T09:47:32.182Z,3.30
2022-08-11T09:48:32.162Z,3.30
2022-08-11T09:49:32.139Z,3.20
2022-08-11T09:50:32.121Z,3.20
2022-08-11T09:51:32.100Z,3.50
2022-08-11T09:52:32.083Z,3.20
2022-08-11T09:53:36.808Z,3.10
2022-08-11T09:54:32.037Z,3.40
2022-08-11T09:55:32.018Z,3.30
2022-08-11T09:56:31.996Z,3.40
2022-08-11T09:57:31.976Z,3.00
2022-08-11T09:58:41.829Z,3.10
2022-08-11T09:59:31.938Z,3.00
2022-08-11T10:00:31.915Z,3.30
2022-08-11T10:01:31.964Z,3.20
2022-08-11T10:02:31.875Z,3.40
2022-08-11T10:03:31.856Z,3.00
2022-08-11T10:04:31.834Z,3.20
2022-08-11T10:05:31.819Z,3.00
2022-08-11T10:06:33.225Z,3.20
2022-08-11T10:07:31.778Z,2.80
2022-08-11T10:08:31.754Z,3.30
2022-08-11T10:09:31.735Z,3.30
2022-08-11T10:10:31.714Z,3.00
2022-08-11T10:11:31.694Z,3.00
2022-08-11T10:12:31.674Z,3.10
2022-08-11T10:14:30.090Z,3.50
2022-08-11T10:14:35.048Z,3.30
2022-08-11T10:15:31.616Z,3.20
2022-08-11T10:16:31.593Z,3.30
2022-08-11T10:17:31.575Z,3.20
2022-08-11T10:18:31.559Z,3.40
2022-08-11T10:19:31.535Z,3.40
2022-08-11T10:20:31.513Z,3.30
2022-08-11T10:21:31.495Z,3.10
2022-08-11T10:22:33.044Z,3.00
2022-08-11T10:23:31.455Z,3.20
2022-08-11T10:24:31.434Z,3.20
2022-08-11T10:25:31.416Z,3.00
2022-08-11T10:26:32.123Z,3.10
2022-08-11T10:28:16.654Z,3.20
2022-08-11T10:28:49.690Z,3.20
2022-08-11T10:29:36.664Z,3.10
2022-08-11T10:30:31.318Z,3.30
2022-08-11T10:31:57.100Z,3.20
2022-08-11T10:32:31.480Z,3.60
2022-08-11T10:33:37.804Z,3.30
2022-08-11T10:34:31.238Z,3.40
2022-08-11T10:35:31.220Z,3.10
2022-08-11T10:36:31.201Z,3.30
2022-08-11T10:38:07.544Z,3.20
2022-08-11T10:38:31.160Z,3.30
2022-08-11T10:39:31.173Z,3.20
2022-08-11T10:40:31.121Z,3.10
2022-08-11T10:41:31.103Z,3.30
2022-08-11T10:42:55.138Z,3.10
2022-08-11T10:44:02.836Z,3.30
2022-08-11T10:44:31.042Z,3.00
2022-08-11T10:45:31.023Z,3.30
2022-08-11T10:46:31.003Z,3.30
2022-08-11T10:47:30.985Z,3.30
2022-08-11T10:48:30.965Z,3.00
2022-08-11T10:49:30.946Z,3.20
2022-08-11T10:50:30.926Z,3.10
2022-08-11T10:51:48.049Z,3.40
2022-08-11T10:52:30.886Z,3.30
2022-08-11T10:53:30.869Z,3.50
2022-08-11T10:54:30.849Z,3.10
2022-08-11T10:55:30.830Z,2.80
2022-08-11T10:56:30.818Z,3.30
2022-08-11T10:57:30.791Z,3.30
2022-08-11T10:58:30.771Z,3.10
2022-08-11T10:59:30.753Z,3.30
2022-08-11T11:00:30.732Z,3.20
2022-08-11T11:01:30.825Z,3.30
2022-08-11T11:02:30.694Z,3.00
2022-08-11T11:03:30.681Z,3.40
2022-08-11T11:04:31.136Z,3.00
2022-08-11T11:05:30.638Z,2.70
2022-08-11T11:06:30.620Z,3.30
2022-08-11T11:07:30.602Z,2.90
2022-08-11T11:08:30.578Z,2.70
2022-08-11T11:09:30.560Z,2.90
2022-08-11T11:10:30.540Z,2.80
2022-08-11T11:11:30.523Z,2.90
2022-08-11T11:12:30.501Z,2.80
2022-08-11T11:13:30.483Z,2.80
2022-08-11T11:14:30.464Z,2.90
2022-08-11T11:15:30.448Z,2.90
2022-08-11T11:16:30.428Z,3.00
2022-08-11T11:17:30.407Z,3.40
2022-08-11T11:18:30.388Z,2.70
2022-08-11T11:19:30.369Z,3.20
2022-08-11T11:20:35.972Z,2.90
2022-08-11T11:21:30.331Z,2.90
2022-08-11T11:22:30.312Z,3.10
2022-08-11T11:23:30.294Z,2.90
2022-08-11T11:24:30.273Z,3.10
2022-08-11T11:25:30.255Z,2.70
2022-08-11T11:26:30.236Z,2.80
2022-08-11T11:27:30.218Z,2.90
2022-08-11T11:28:30.198Z,2.70
2022-08-11T11:29:30.181Z,3.20
2022-08-11T11:30:30.160Z,2.70
2022-08-11T11:31:30.144Z,2.60
2022-08-11T11:32:30.163Z,3.00
2022-08-11T11:33:30.104Z,2.70
2022-08-11T11:34:30.089Z,2.80
2022-08-11T11:35:30.067Z,2.70
2022-08-11T11:36:30.047Z,3.00
2022-08-11T11:37:30.028Z,2.70
2022-08-11T11:38:30.010Z,3.10
2022-08-11T11:39:30.046Z,3.00
2022-08-11T11:40:31.743Z,2.90
2022-08-11T11:41:29.954Z,2.60
2022-08-11T11:42:30.083Z,3.00
2022-08-11T11:43:29.918Z,2.90
2022-08-11T11:44:29.899Z,2.70
2022-08-11T11:45:29.884Z,3.10
2022-08-11T11:46:30.424Z,2.90
2022-08-11T11:47:29.843Z,3.00
2022-08-11T11:48:29.827Z,2.80
2022-08-11T11:49:29.806Z,2.50
2022-08-11T11:50:31.761Z,2.70
2022-08-11T11:51:29.771Z,2.90
2022-08-11T11:52:29.842Z,2.70
2022-08-11T11:53:29.732Z,2.70
2022-08-11T11:54:29.712Z,2.70
2022-08-11T11:55:29.696Z,2.70
2022-08-11T11:56:29.675Z,2.80
2022-08-11T11:57:29.724Z,2.70
2022-08-11T11:58:29.639Z,2.70
2022-08-11T11:59:29.622Z,2.90
2022-08-11T12:00:33.326Z,2.60
2022-08-11T12:01:29.585Z,3.10
2022-08-11T12:02:29.567Z,2.70
2022-08-11T12:03:29.594Z,2.90
2022-08-11T12:04:29.529Z,3.10
2022-08-11T12:05:29.511Z,3.00
2022-08-11T12:06:29.495Z,3.00
2022-08-11T12:07:29.615Z,2.70
2022-08-11T12:08:29.456Z,2.70
2022-08-11T12:09:29.442Z,2.70
2022-08-11T12:10:29.419Z,3.10
2022-08-11T12:11:29.406Z,2.90
2022-08-11T12:12:29.390Z,3.00
2022-08-11T12:13:29.367Z,3.00
2022-08-11T12:14:29.347Z,3.00
2022-08-11T12:16:03.606Z,3.20
2022-08-11T12:16:35.015Z,2.70
2022-08-11T12:17:29.340Z,3.00
2022-08-11T12:18:29.275Z,3.00
2022-08-11T12:19:29.259Z,2.90
2022-08-11T12:20:31.963Z,2.50
2022-08-11T12:21:29.221Z,2.50
2022-08-11T12:22:29.207Z,2.70
2022-08-11T12:23:29.186Z,3.00
2022-08-11T12:24:29.738Z,2.80
2022-08-11T12:25:29.151Z,2.90
2022-08-11T12:26:29.132Z,2.60
2022-08-11T12:27:29.186Z,3.00
2022-08-11T12:28:29.301Z,2.60
2022-08-11T12:29:29.078Z,2.90
2022-08-11T12:30:29.069Z,2.80
2022-08-11T12:31:29.045Z,2.90
2022-08-11T12:32:29.096Z,3.30
2022-08-11T12:33:29.008Z,3.20
2022-08-11T12:34:28.988Z,2.90
2022-08-11T12:35:28.975Z,2.80
2022-08-11T12:36:28.952Z,2.90
2022-08-11T12:37:28.999Z,3.30
2022-08-11T12:38:29.891Z,2.70
2022-08-11T12:40:16.834Z,3.00
2022-08-11T12:40:43.408Z,3.00
2022-08-11T12:41:28.883Z,2.80
2022-08-11T12:42:28.856Z,2.90
2022-08-11T12:43:38.439Z,3.00
2022-08-11T12:44:28.811Z,3.10
2022-08-11T12:45:28.794Z,3.00
2022-08-11T12:46:28.783Z,2.70
2022-08-11T12:47:28.771Z,2.80
2022-08-11T12:48:58.980Z,2.90
2022-08-11T12:49:28.723Z,2.90
2022-08-11T12:50:28.705Z,2.90
2022-08-11T12:51:28.692Z,3.00
2022-08-11T12:52:28.671Z,2.70
2022-08-11T12:53:28.655Z,2.90
2022-08-11T12:54:28.636Z,2.60
2022-08-11T12:55:28.621Z,2.70
2022-08-11T12:56:28.600Z,2.90
2022-08-11T12:57:37.520Z,3.00
2022-08-11T12:58:28.565Z,2.80
2022-08-11T12:59:28.548Z,2.90
2022-08-11T13:00:28.532Z,2.80
2022-08-11T13:01:28.571Z,2.80
2022-08-11T13:02:28.497Z,2.80
2022-08-11T13:03:28.478Z,2.60
2022-08-11T13:04:28.461Z,3.30
2022-08-11T13:05:28.444Z,3.00
2022-08-11T13:06:28.427Z,3.10
2022-08-11T13:07:28.410Z,2.80
2022-08-11T13:08:28.392Z,2.70
2022-08-11T13:09:28.374Z,2.90
2022-08-11T13:10:28.362Z,2.60
2022-08-11T13:11:55.702Z,3.10
2022-08-11T13:12:28.324Z,2.80
2022-08-11T13:13:52.467Z,2.80
2022-08-11T13:14:28.289Z,2.70
2022-08-11T13:15:28.271Z,2.90
2022-08-11T13:16:28.253Z,2.90
2022-08-11T13:17:44.165Z,3.30
2022-08-11T13:18:28.221Z,2.60
2022-08-11T13:19:28.203Z,2.80
2022-08-11T13:20:28.185Z,2.60